This is the latest recevied weather packets stored in our database for station/object W4DHW-4. If no packets are shown the sender has not sent any weather packets the latest 10 day(s).
| Time | Temp. | Humidity | Pressure | Rain* | Wind** | Luminosity | Snow |
|---|---|---|---|---|---|---|---|
| 1777940571 | 18.89° C | 60% | 1012.1 hPa | 0 mm | - | 0 W/m² | - |
| 1777940269 | 18.89° C | 59% | 1012.6 hPa | 0 mm | - | 0 W/m² | - |
| 1777939966 | 18.89° C | 58% | 1012.3 hPa | 0 mm | - | 1 W/m² | - |
| 1777939663 | 19.44° C | 56% | 1012.4 hPa | 0 mm | - | 4 W/m² | - |
| 1777939361 | 20° C | 54% | 1012.3 hPa | 0 mm | - | 6 W/m² | - |
| 1777939057 | 21.11° C | 53% | 1011.9 hPa | 0 mm | - | 9 W/m² | - |
| 1777938753 | 21.67° C | 49% | 1012.5 hPa | 0 mm | - | 12 W/m² | - |
| 1777938451 | 21.67° C | 47% | 1012.3 hPa | 0 mm | - | 16 W/m² | - |
| 1777938148 | 22.22° C | 46% | 1012.4 hPa | 0 mm | - | 19 W/m² | - |
| 1777937844 | 22.22° C | 46% | 1012.1 hPa | 0 mm | - | 22 W/m² | - |
| 1777937540 | 22.22° C | 45% | 1012.3 hPa | 0 mm | - | 23 W/m² | - |
| 1777937237 | 22.22° C | 45% | 1012 hPa | 0 mm | - | 26 W/m² | - |
| 1777936934 | 22.78° C | 45% | 1012 hPa | 0 mm | - | 31 W/m² | - |
| 1777936631 | 23.33° C | 43% | 1012.1 hPa | 0 mm | - | 36 W/m² | - |
| 1777936327 | 23.33° C | 42% | 1012.3 hPa | 0 mm | - | 39 W/m² | - |
| 1777936023 | 23.33° C | 43% | 1012.1 hPa | 0 mm | - | 45 W/m² | - |
| 1777935722 | 22.78° C | 43% | 1012.3 hPa | 0 mm | - | 67 W/m² | - |
| 1777935420 | 22.78° C | 42% | 1012.3 hPa | 0 mm | - | 91 W/m² | - |
| 1777935115 | 22.78° C | 42% | 1012.5 hPa | 0 mm | - | 106 W/m² | - |
| 1777934813 | 23.33° C | 42% | 1012.5 hPa | 0 mm | - | 130 W/m² | - |
| 1777934510 | 23.33° C | 42% | 1012.4 hPa | 0 mm | - | 167 W/m² | - |
| 1777934207 | 22.78° C | 41% | 1012 hPa | 0 mm | - | 201 W/m² | - |
| 1777933902 | 22.78° C | 41% | 1012.3 hPa | 0 mm | - | 226 W/m² | - |
| 1777933600 | 22.22° C | 43% | 1012.3 hPa | 0 mm | - | 235 W/m² | - |
| 1777933296 | 21.67° C | 44% | 1012.7 hPa | 0 mm | - | 114 W/m² | - |
* Rain latest hour (hover to see other rain measurements)
** Current wind speed in m/s (hover to see current wind gust speed)